Time;durP1;ratioP1;P1;durP2;ratioP2;P2;SDS_P1;SDS_P2;PMS_P1;PMS_P2;Temp;Humidity;BMP_temperature;BMP_pressure;BME280_temperature;BME280_humidity;BME280_pressure;Samples;Min_cycle;Max_cycle;Signal;HPM_P1;HPM_P2
2023/06/16 00:01:20;;;;;;;;;;;19.70;85.70;;;;;;5055088;28;19916;-63
2023/06/16 00:03:49;;;;;;;;;;;19.70;89.80;;;;;;5060358;28;19928;-63
2023/06/16 00:06:16;;;;;;;;;;;19.70;93.20;;;;;;5059054;28;20007;-63
2023/06/16 00:08:44;;;;;;;;;;;19.60;92.00;;;;;;5060017;28;20360;-63
2023/06/16 00:11:16;;;;;;;;;;;19.60;88.80;;;;;;5060294;28;20031;-63
2023/06/16 00:13:42;;;;;;;;;;;19.60;92.00;;;;;;5059991;28;20398;-63
2023/06/16 00:16:09;;;;;;;;;;;19.60;90.80;;;;;;5057296;28;19913;-63
2023/06/16 00:18:36;;;;;;;;;;;19.60;92.80;;;;;;5060156;28;19908;-63
2023/06/16 00:21:04;;;;;;;;;;;19.60;91.00;;;;;;5059020;28;20543;-63
2023/06/16 00:23:29;;;;;;;;;;;19.60;90.60;;;;;;5059786;28;19912;-63
2023/06/16 00:25:56;;;;;;;;;;;19.60;92.70;;;;;;5058806;28;19919;-63
2023/06/16 00:28:22;;;;;;;;;;;19.50;91.60;;;;;;5060003;28;19916;-63
2023/06/16 00:30:47;;;;;;;;;;;19.50;90.70;;;;;;5054695;28;19913;-63
2023/06/16 00:33:15;;;;;;;;;;;19.30;93.10;;;;;;5059699;28;20364;-63
2023/06/16 00:35:42;;;;;;;;;;;19.50;92.20;;;;;;5059649;28;19916;-63
2023/06/16 00:38:08;;;;;;;;;;;19.50;94.60;;;;;;5059684;28;19908;-63
2023/06/16 00:40:33;;;;;;;;;;;19.40;93.20;;;;;;5059617;28;19996;-63
2023/06/16 00:43:01;;;;;;;;;;;19.40;93.60;;;;;;5058412;28;19917;-63
2023/06/16 00:45:28;;;;;;;;;;;19.40;92.00;;;;;;5057570;28;19916;-63
2023/06/16 00:47:54;;;;;;;;;;;19.40;92.20;;;;;;5058667;28;19912;-63
2023/06/16 00:50:20;;;;;;;;;;;19.40;90.60;;;;;;5059587;28;19916;-63
2023/06/16 00:52:45;;;;;;;;;;;19.40;92.40;;;;;;5058511;28;19912;-63
2023/06/16 00:55:11;;;;;;;;;;;19.40;91.10;;;;;;5059339;28;19909;-63
2023/06/16 00:57:38;;;;;;;;;;;19.40;91.50;;;;;;5059304;28;19916;-63
2023/06/16 01:00:06;;;;;;;;;;;19.40;90.60;;;;;;5059198;28;19915;-63
2023/06/16 01:02:32;;;;;;;;;;;19.40;90.80;;;;;;5057251;28;19994;-63
2023/06/16 01:04:58;;;;;;;;;;;19.30;92.00;;;;;;5059047;28;20637;-63
2023/06/16 01:07:38;;;;;;;;;;;19.30;92.60;;;;;;5059370;28;19912;-63
2023/06/16 01:10:24;;;;;;;;;;;19.30;94.20;;;;;;5058861;28;19912;-63
2023/06/16 01:13:07;;;;;;;;;;;19.30;91.80;;;;;;5057729;28;19974;-63
2023/06/16 01:15:35;;;;;;;;;;;19.20;93.70;;;;;;5059194;28;19928;-63
2023/06/16 01:18:01;;;;;;;;;;;19.30;92.20;;;;;;5054893;28;19913;-63
2023/06/16 01:20:39;;;;;;;;;;;19.20;92.20;;;;;;5058768;28;19913;-63
2023/06/16 01:23:15;;;;;;;;;;;19.20;92.40;;;;;;5058487;28;19923;-63
2023/06/16 01:25:42;;;;;;;;;;;19.20;92.50;;;;;;5058941;28;19909;-63
2023/06/16 01:28:09;;;;;;;;;;;19.20;93.20;;;;;;5058627;28;19915;-63
2023/06/16 01:30:34;;;;;;;;;;;19.20;91.50;;;;;;5058517;28;19916;-63
2023/06/16 01:33:01;;;;;;;;;;;19.20;91.00;;;;;;5055720;28;19913;-63
2023/06/16 01:35:27;;;;;;;;;;;19.20;91.50;;;;;;5058823;28;19971;-63
2023/06/16 01:37:54;;;;;;;;;;;19.20;91.10;;;;;;5058603;28;19909;-63
2023/06/16 01:40:19;;;;;;;;;;;19.20;91.10;;;;;;5058431;28;19956;-63
2023/06/16 01:42:46;;;;;;;;;;;19.20;91.30;;;;;;5057320;28;19913;-63
2023/06/16 01:45:14;;;;;;;;;;;19.20;91.80;;;;;;5058426;28;20487;-63
2023/06/16 01:47:40;;;;;;;;;;;19.20;92.90;;;;;;5051087;28;19920;-63
2023/06/16 01:50:05;;;;;;;;;;;19.20;93.90;;;;;;5057784;28;19909;-63
2023/06/16 01:52:31;;;;;;;;;;;19.10;93.20;;;;;;5058550;28;19913;-63
2023/06/16 01:54:57;;;;;;;;;;;19.10;92.70;;;;;;5058352;28;19952;-63
2023/06/16 01:57:23;;;;;;;;;;;19.10;92.60;;;;;;5058490;28;19999;-63
2023/06/16 01:59:53;;;;;;;;;;;19.10;94.10;;;;;;5057260;28;19954;-63
2023/06/16 02:02:19;;;;;;;;;;;19.00;93.00;;;;;;5054588;28;19948;-63
2023/06/16 02:04:48;;;;;;;;;;;19.00;94.50;;;;;;5057695;28;19913;-63
2023/06/16 02:07:18;;;;;;;;;;;19.00;92.90;;;;;;5057055;28;19909;-63
2023/06/16 02:09:45;;;;;;;;;;;18.90;95.90;;;;;;5057379;28;19944;-63
2023/06/16 02:12:11;;;;;;;;;;;18.80;93.90;;;;;;5058286;28;19931;-63
2023/06/16 02:14:38;;;;;;;;;;;18.80;95.60;;;;;;5058003;28;19920;-63
2023/06/16 02:17:12;;;;;;;;;;;18.80;93.90;;;;;;5054348;28;19927;-63
2023/06/16 02:19:38;;;;;;;;;;;18.80;94.20;;;;;;5057912;28;19913;-63
2023/06/16 02:22:05;;;;;;;;;;;18.70;94.30;;;;;;5057754;28;19909;-63
2023/06/16 02:24:31;;;;;;;;;;;18.70;96.30;;;;;;5057525;28;20371;-63
2023/06/16 02:26:56;;;;;;;;;;;18.60;95.60;;;;;;5055926;28;19939;-63
2023/06/16 02:29:22;;;;;;;;;;;18.60;94.30;;;;;;5057543;28;19909;-63
2023/06/16 02:31:48;;;;;;;;;;;18.60;93.70;;;;;;5056757;28;19920;-63
2023/06/16 02:34:14;;;;;;;;;;;18.60;95.70;;;;;;5054750;28;19916;-63
2023/06/16 02:36:39;;;;;;;;;;;18.60;98.10;;;;;;5057725;28;19909;-63
2023/06/16 02:39:05;;;;;;;;;;;18.50;95.90;;;;;;5057881;28;19976;-63
2023/06/16 02:41:32;;;;;;;;;;;18.40;98.70;;;;;;5057639;28;19916;-63
2023/06/16 02:43:57;;;;;;;;;;;18.40;97.60;;;;;;5056642;28;19916;-63
2023/06/16 02:46:23;;;;;;;;;;;18.40;97.60;;;;;;5055772;28;19912;-63
2023/06/16 02:48:48;;;;;;;;;;;18.40;99.90;;;;;;5055569;28;19913;-63
2023/06/16 02:51:14;;;;;;;;;;;18.30;99.90;;;;;;5057643;28;20004;-63
2023/06/16 02:53:40;;;;;;;;;;;18.30;98.10;;;;;;5056828;28;19913;-63
2023/06/16 02:56:07;;;;;;;;;;;18.40;98.80;;;;;;5057677;28;19916;-63
2023/06/16 02:58:32;;;;;;;;;;;18.40;97.80;;;;;;5057581;28;19909;-63
2023/06/16 03:00:58;;;;;;;;;;;18.30;98.60;;;;;;5055859;28;19924;-63
2023/06/16 03:03:25;;;;;;;;;;;18.30;99.60;;;;;;5059258;28;19978;-63
2023/06/16 03:05:51;;;;;;;;;;;18.30;97.90;;;;;;5059839;28;19913;-63
2023/06/16 03:08:16;;;;;;;;;;;18.30;97.70;;;;;;5060962;28;19978;-63
2023/06/16 03:10:42;;;;;;;;;;;18.20;99.90;;;;;;5060290;28;20000;-63
2023/06/16 03:13:08;;;;;;;;;;;18.20;98.30;;;;;;5041284;28;19993;-64
2023/06/16 03:15:34;;;;;;;;;;;18.20;96.80;;;;;;5041405;28;19920;-63
2023/06/16 03:18:00;;;;;;;;;;;18.10;99.90;;;;;;5056255;28;19921;-63
2023/06/16 03:20:25;;;;;;;;;;;18.10;99.40;;;;;;5061539;28;19923;-63
2023/06/16 03:22:51;;;;;;;;;;;18.10;97.80;;;;;;5060935;28;19909;-63
2023/06/16 03:25:17;;;;;;;;;;;18.10;96.80;;;;;;5060938;28;19916;-63
2023/06/16 03:27:42;;;;;;;;;;;18.10;97.40;;;;;;5059275;28;19920;-63
2023/06/16 03:30:08;;;;;;;;;;;18.20;97.70;;;;;;5060086;28;19916;-63
2023/06/16 03:32:35;;;;;;;;;;;18.20;98.50;;;;;;5057070;28;20065;-63
2023/06/16 03:35:04;;;;;;;;;;;18.20;97.00;;;;;;5060721;28;19916;-63
2023/06/16 03:37:30;;;;;;;;;;;18.20;97.30;;;;;;5059468;28;19991;-63
2023/06/16 03:39:56;;;;;;;;;;;18.20;98.30;;;;;;5061009;28;19909;-63
2023/06/16 03:42:22;;;;;;;;;;;18.20;99.80;;;;;;5060529;28;19909;-63
2023/06/16 03:44:48;;;;;;;;;;;18.20;98.00;;;;;;5060654;28;19919;-63
2023/06/16 03:47:14;;;;;;;;;;;18.20;98.30;;;;;;5058556;28;20360;-63
2023/06/16 03:49:40;;;;;;;;;;;18.20;99.90;;;;;;5056531;28;19919;-63
2023/06/16 03:52:05;;;;;;;;;;;18.20;99.90;;;;;;5060698;28;19916;-63
2023/06/16 03:54:31;;;;;;;;;;;18.20;98.20;;;;;;5061025;28;20334;-63
2023/06/16 03:56:57;;;;;;;;;;;18.20;99.00;;;;;;5059347;28;19912;-63
2023/06/16 03:59:22;;;;;;;;;;;18.30;99.90;;;;;;5060239;28;19909;-63
2023/06/16 04:01:51;;;;;;;;;;;18.30;99.90;;;;;;5059338;28;19913;-63
2023/06/16 04:04:17;;;;;;;;;;;18.30;98.80;;;;;;5041344;28;19921;-63
2023/06/16 04:06:43;;;;;;;;;;;18.30;98.50;;;;;;5060476;28;19915;-63
2023/06/16 04:09:09;;;;;;;;;;;18.30;98.40;;;;;;5059892;28;19909;-63
2023/06/16 04:11:40;;;;;;;;;;;18.30;99.90;;;;;;5059937;28;19916;-63
2023/06/16 04:14:06;;;;;;;;;;;18.40;98.90;;;;;;5057043;28;19927;-63
2023/06/16 04:16:31;;;;;;;;;;;18.30;98.20;;;;;;5058147;28;19917;-63
2023/06/16 04:18:57;;;;;;;;;;;18.30;98.70;;;;;;5057190;28;19913;-63
2023/06/16 04:21:22;;;;;;;;;;;18.30;99.30;;;;;;5060139;28;20271;-63
2023/06/16 04:23:48;;;;;;;;;;;18.30;99.00;;;;;;5058985;28;19966;-63
2023/06/16 04:26:21;;;;;;;;;;;18.30;99.90;;;;;;5060169;28;19959;-63
2023/06/16 04:28:53;;;;;;;;;;;18.30;98.70;;;;;;5059642;28;19913;-63
2023/06/16 04:31:20;;;;;;;;;;;18.30;99.70;;;;;;5057423;28;19913;-63
2023/06/16 04:33:46;;;;;;;;;;;18.30;98.90;;;;;;5057557;28;20539;-63
2023/06/16 04:36:12;;;;;;;;;;;18.40;98.50;;;;;;5059955;28;19932;-63
2023/06/16 04:38:38;;;;;;;;;;;18.30;98.50;;;;;;5060155;28;19909;-63
2023/06/16 04:41:04;;;;;;;;;;;18.40;99.70;;;;;;5058884;28;20311;-63
2023/06/16 04:43:30;;;;;;;;;;;18.40;98.90;;;;;;5057781;28;19917;-63
2023/06/16 04:45:57;;;;;;;;;;;18.40;99.90;;;;;;5058530;28;20447;-63
2023/06/16 04:48:24;;;;;;;;;;;18.40;98.90;;;;;;5058533;28;20003;-63
2023/06/16 04:50:49;;;;;;;;;;;18.40;98.60;;;;;;5059463;28;19909;-63
2023/06/16 04:53:15;;;;;;;;;;;18.50;99.90;;;;;;5059267;28;19915;-63
2023/06/16 04:55:41;;;;;;;;;;;18.50;99.30;;;;;;5057746;28;19920;-63
2023/06/16 04:58:06;;;;;;;;;;;18.50;99.30;;;;;;5040346;28;20380;-63
2023/06/16 05:00:32;;;;;;;;;;;18.50;99.90;;;;;;5058802;28;19916;-63
2023/06/16 05:02:58;;;;;;;;;;;18.50;98.70;;;;;;5055335;28;21928;-63
2023/06/16 05:05:24;;;;;;;;;;;18.50;99.80;;;;;;5059065;28;19921;-63
2023/06/16 05:07:49;;;;;;;;;;;18.60;99.40;;;;;;5059103;28;19915;-63
2023/06/16 05:10:15;;;;;;;;;;;18.60;99.60;;;;;;5060206;28;19916;-63
2023/06/16 05:12:40;;;;;;;;;;;18.60;98.90;;;;;;5078338;28;19916;-63
2023/06/16 05:15:06;;;;;;;;;;;18.60;99.40;;;;;;5055680;28;19925;-63
2023/06/16 05:17:32;;;;;;;;;;;18.60;99.30;;;;;;5059118;28;19962;-63
2023/06/16 05:19:57;;;;;;;;;;;18.60;99.90;;;;;;5055897;28;19920;-63
2023/06/16 05:22:23;;;;;;;;;;;18.70;99.60;;;;;;5059021;28;19909;-63
2023/06/16 05:24:56;;;;;;;;;;;18.70;99.70;;;;;;5057626;28;19912;-63
2023/06/16 05:27:25;;;;;;;;;;;18.70;99.90;;;;;;5058803;28;19917;-63
2023/06/16 05:29:51;;;;;;;;;;;18.70;99.80;;;;;;5057446;28;19926;-63
2023/06/16 05:32:19;;;;;;;;;;;18.80;99.90;;;;;;5057506;28;19971;-63
2023/06/16 05:34:45;;;;;;;;;;;18.80;99.90;;;;;;5055170;28;19991;-63
2023/06/16 05:37:15;;;;;;;;;;;18.80;99.70;;;;;;5058316;28;19916;-63
2023/06/16 05:39:44;;;;;;;;;;;18.90;99.90;;;;;;5058613;28;19909;-63
2023/06/16 05:42:14;;;;;;;;;;;18.90;99.90;;;;;;5058089;28;19920;-63
2023/06/16 05:44:40;;;;;;;;;;;18.90;99.90;;;;;;5058230;28;20328;-63
2023/06/16 05:47:06;;;;;;;;;;;18.90;99.90;;;;;;5058387;28;19948;-63
2023/06/16 05:49:32;;;;;;;;;;;19.00;99.90;;;;;;5054319;28;19916;-63
2023/06/16 05:51:58;;;;;;;;;;;19.10;99.90;;;;;;5056698;28;19909;-63
2023/06/16 05:54:23;;;;;;;;;;;19.10;99.90;;;;;;5052573;28;20055;-63
2023/06/16 05:56:49;;;;;;;;;;;19.10;99.90;;;;;;5054169;28;19951;-63
2023/06/16 05:59:15;;;;;;;;;;;19.20;99.70;;;;;;5058272;28;19978;-63
2023/06/16 06:01:40;;;;;;;;;;;19.20;99.90;;;;;;5057474;28;19917;-63
2023/06/16 06:04:06;;;;;;;;;;;19.20;99.90;;;;;;5055460;28;19921;-63
2023/06/16 06:06:32;;;;;;;;;;;19.30;99.90;;;;;;5057885;28;19912;-63
2023/06/16 06:08:57;;;;;;;;;;;19.30;99.90;;;;;;5052403;28;19959;-63
2023/06/16 06:11:23;;;;;;;;;;;19.30;99.90;;;;;;5036189;28;20292;-63
2023/06/16 06:13:49;;;;;;;;;;;19.30;99.90;;;;;;5043070;28;19925;-63
2023/06/16 06:16:14;;;;;;;;;;;19.40;99.90;;;;;;5058174;28;19909;-63
2023/06/16 06:18:43;;;;;;;;;;;19.40;99.90;;;;;;5055065;28;20319;-64
2023/06/16 06:21:09;;;;;;;;;;;19.40;99.90;;;;;;5057179;28;20007;-63
2023/06/16 06:23:34;;;;;;;;;;;19.50;99.90;;;;;;5056608;28;19962;-64
2023/06/16 06:26:00;;;;;;;;;;;19.60;99.90;;;;;;5057615;28;19909;-64
2023/06/16 06:28:26;;;;;;;;;;;19.70;99.90;;;;;;5060498;28;19912;-63
2023/06/16 06:30:51;;;;;;;;;;;19.70;99.90;;;;;;5062718;28;19982;-63
2023/06/16 06:33:17;;;;;;;;;;;19.70;99.90;;;;;;5058720;28;19945;-63
2023/06/16 06:35:42;;;;;;;;;;;19.70;99.90;;;;;;5054674;28;19958;-63
2023/06/16 06:38:08;;;;;;;;;;;19.80;99.90;;;;;;5057350;28;20054;-63
2023/06/16 06:40:35;;;;;;;;;;;19.80;99.90;;;;;;5057992;28;19909;-63
2023/06/16 06:43:01;;;;;;;;;;;19.80;99.90;;;;;;5057087;28;19915;-63
2023/06/16 06:45:27;;;;;;;;;;;20.00;99.90;;;;;;5053565;28;19917;-63
2023/06/16 06:47:53;;;;;;;;;;;19.80;99.90;;;;;;5054926;28;19913;-63
2023/06/16 06:50:18;;;;;;;;;;;19.80;99.90;;;;;;5044436;28;19913;-63
2023/06/16 06:52:44;;;;;;;;;;;19.90;99.90;;;;;;5045944;28;19919;-63
2023/06/16 06:55:10;;;;;;;;;;;19.90;99.90;;;;;;5057193;28;19913;-64
2023/06/16 06:57:35;;;;;;;;;;;19.90;99.90;;;;;;5055677;28;19928;-64
2023/06/16 07:00:01;;;;;;;;;;;20.00;99.90;;;;;;5054749;28;19952;-63
2023/06/16 07:02:26;;;;;;;;;;;20.10;99.90;;;;;;5051661;28;19962;-63
2023/06/16 07:04:52;;;;;;;;;;;20.20;99.90;;;;;;5057674;28;20289;-60
2023/06/16 07:07:18;;;;;;;;;;;20.30;99.90;;;;;;5041896;28;19980;-60
2023/06/16 07:09:44;;;;;;;;;;;20.40;99.90;;;;;;5048799;28;19913;-60
2023/06/16 07:12:09;;;;;;;;;;;20.50;99.90;;;;;;5053186;28;19913;-60
2023/06/16 07:14:35;;;;;;;;;;;20.50;99.90;;;;;;5054181;28;19920;-60
2023/06/16 07:17:02;;;;;;;;;;;20.60;99.90;;;;;;5043555;28;19960;-60
2023/06/16 07:19:28;;;;;;;;;;;20.70;99.90;;;;;;5056937;28;19916;-60
2023/06/16 07:21:54;;;;;;;;;;;20.80;99.90;;;;;;5056266;28;19912;-60
2023/06/16 07:24:21;;;;;;;;;;;20.90;99.90;;;;;;5057374;28;19941;-60
2023/06/16 07:26:47;;;;;;;;;;;21.00;99.90;;;;;;5052516;28;19913;-60
2023/06/16 07:29:12;;;;;;;;;;;21.10;99.90;;;;;;5055222;28;19920;-60
2023/06/16 07:31:38;;;;;;;;;;;21.20;99.90;;;;;;5052641;28;19913;-60
2023/06/16 07:34:04;;;;;;;;;;;21.40;99.90;;;;;;5055660;28;19983;-60
2023/06/16 07:36:31;;;;;;;;;;;21.50;99.90;;;;;;5056656;28;19963;-60
2023/06/16 07:38:57;;;;;;;;;;;21.70;99.90;;;;;;5043378;28;19936;-60
2023/06/16 07:41:22;;;;;;;;;;;22.10;99.90;;;;;;5064558;28;19913;-60
2023/06/16 07:43:48;;;;;;;;;;;21.90;99.90;;;;;;5063576;28;19957;-60
2023/06/16 07:46:14;;;;;;;;;;;21.90;98.50;;;;;;5063586;28;20427;-60
2023/06/16 07:48:40;;;;;;;;;;;22.00;98.30;;;;;;5055900;28;20369;-60
2023/06/16 07:51:06;;;;;;;;;;;22.00;99.00;;;;;;5053744;28;19956;-60
2023/06/16 07:53:31;;;;;;;;;;;22.20;98.00;;;;;;5047200;28;19917;-60
2023/06/16 07:55:57;;;;;;;;;;;22.30;99.20;;;;;;5020325;28;20004;-60
2023/06/16 07:58:23;;;;;;;;;;;22.30;97.40;;;;;;5057688;28;19920;-60
2023/06/16 08:00:51;;;;;;;;;;;22.40;96.30;;;;;;5068693;28;19913;-60
2023/06/16 08:03:17;;;;;;;;;;;22.40;94.70;;;;;;5061186;28;20295;-60
2023/06/16 08:05:43;;;;;;;;;;;22.10;95.20;;;;;;5074613;28;19970;-60
2023/06/16 08:08:08;;;;;;;;;;;22.20;97.80;;;;;;5050886;28;19909;-60
2023/06/16 08:10:35;;;;;;;;;;;22.30;97.70;;;;;;5058183;28;19935;-60
2023/06/16 08:13:00;;;;;;;;;;;22.30;96.00;;;;;;5056853;28;19913;-60
2023/06/16 08:15:26;;;;;;;;;;;22.30;98.40;;;;;;5057331;28;19984;-60
2023/06/16 08:17:52;;;;;;;;;;;22.50;97.90;;;;;;5057811;28;19917;-60
2023/06/16 08:20:18;;;;;;;;;;;22.80;99.30;;;;;;5057891;28;19947;-60
2023/06/16 08:22:44;;;;;;;;;;;23.00;97.80;;;;;;5056504;28;20372;-60
2023/06/16 08:25:09;;;;;;;;;;;23.10;96.80;;;;;;5054121;28;20391;-60
2023/06/16 08:27:35;;;;;;;;;;;23.10;93.50;;;;;;5056222;28;19909;-60
2023/06/16 08:30:01;;;;;;;;;;;23.10;93.90;;;;;;5059678;28;20304;-60
2023/06/16 08:32:27;;;;;;;;;;;23.10;96.20;;;;;;5057192;28;19955;-60
2023/06/16 08:34:52;;;;;;;;;;;23.30;96.50;;;;;;5058618;28;19913;-60
2023/06/16 08:37:18;;;;;;;;;;;23.30;96.10;;;;;;5059630;28;19916;-60
2023/06/16 08:39:44;;;;;;;;;;;23.30;93.00;;;;;;5060014;28;19913;-60
2023/06/16 08:42:12;;;;;;;;;;;23.00;90.60;;;;;;5059535;28;19909;-60
2023/06/16 08:44:38;;;;;;;;;;;22.90;94.50;;;;;;5059017;28;20252;-60
2023/06/16 08:47:05;;;;;;;;;;;22.70;95.20;;;;;;5059918;28;19966;-60
2023/06/16 08:49:31;;;;;;;;;;;22.50;95.80;;;;;;5059188;28;19909;-60
2023/06/16 08:51:57;;;;;;;;;;;22.50;96.10;;;;;;5059334;28;19919;-60
2023/06/16 08:54:25;;;;;;;;;;;22.50;95.10;;;;;;5058019;28;20398;-60
2023/06/16 08:56:51;;;;;;;;;;;22.20;94.80;;;;;;5058985;28;20050;-60
2023/06/16 08:59:18;;;;;;;;;;;21.80;95.00;;;;;;5058267;28;20640;-60
2023/06/16 09:01:44;;;;;;;;;;;21.70;94.70;;;;;;5059370;28;19909;-60
2023/06/16 09:04:11;;;;;;;;;;;21.60;95.80;;;;;;5058840;28;19920;-60
2023/06/16 09:06:37;;;;;;;;;;;21.50;95.20;;;;;;5059049;28;20406;-60
2023/06/16 09:09:04;;;;;;;;;;;21.70;95.80;;;;;;5058641;28;20295;-60
2023/06/16 09:11:30;;;;;;;;;;;21.70;97.20;;;;;;5059164;28;19972;-60
2023/06/16 09:13:56;;;;;;;;;;;22.10;96.10;;;;;;5058804;28;20400;-60
2023/06/16 09:16:23;;;;;;;;;;;22.30;95.40;;;;;;5058245;28;19913;-60
2023/06/16 09:18:49;;;;;;;;;;;22.30;95.80;;;;;;5059001;28;19909;-60
2023/06/16 09:21:22;;;;;;;;;;;22.80;98.10;;;;;;5058922;28;19916;-60
2023/06/16 09:23:57;;;;;;;;;;;23.10;93.60;;;;;;5058596;28;20012;-60
2023/06/16 09:26:30;;;;;;;;;;;23.30;92.20;;;;;;5056689;28;19912;-60
2023/06/16 09:28:56;;;;;;;;;;;23.60;92.00;;;;;;5058509;28;19916;-60
2023/06/16 09:31:28;;;;;;;;;;;23.60;88.50;;;;;;5059001;28;19915;-60
2023/06/16 09:34:06;;;;;;;;;;;23.70;77.70;;;;;;5058761;28;20291;-60
2023/06/16 09:36:32;;;;;;;;;;;23.60;79.10;;;;;;5056810;28;19931;-60
2023/06/16 09:38:57;;;;;;;;;;;23.60;83.30;;;;;;5058474;28;19913;-60
2023/06/16 09:41:23;;;;;;;;;;;23.50;80.30;;;;;;5058895;28;19909;-60
2023/06/16 09:43:50;;;;;;;;;;;23.40;84.20;;;;;;5058621;28;19919;-60
2023/06/16 09:46:16;;;;;;;;;;;23.70;88.70;;;;;;5058897;28;19909;-60
2023/06/16 09:48:48;;;;;;;;;;;23.50;81.00;;;;;;5057167;28;19919;-60
2023/06/16 09:51:23;;;;;;;;;;;23.40;79.40;;;;;;5058508;28;19916;-60
2023/06/16 09:53:49;;;;;;;;;;;23.30;79.00;;;;;;5058343;28;19909;-60
2023/06/16 09:56:16;;;;;;;;;;;22.80;80.20;;;;;;5058380;28;19967;-60
2023/06/16 09:58:42;;;;;;;;;;;22.90;84.90;;;;;;5057163;28;19913;-60
2023/06/16 10:01:09;;;;;;;;;;;23.30;82.80;;;;;;5058425;28;19915;-60
2023/06/16 10:03:37;;;;;;;;;;;23.40;84.70;;;;;;5057854;28;20379;-60
2023/06/16 10:06:06;;;;;;;;;;;23.80;88.40;;;;;;5058060;28;19913;-60
2023/06/16 10:08:33;;;;;;;;;;;24.10;80.10;;;;;;5057185;28;19913;-60
2023/06/16 10:10:59;;;;;;;;;;;24.10;78.40;;;;;;5057452;28;19984;-60
2023/06/16 10:13:25;;;;;;;;;;;23.90;81.00;;;;;;5057450;28;20348;-60
2023/06/16 10:15:51;;;;;;;;;;;23.50;77.10;;;;;;5058140;28;19917;-60
2023/06/16 10:18:17;;;;;;;;;;;23.30;78.00;;;;;;5056855;28;20352;-60
2023/06/16 10:20:45;;;;;;;;;;;23.20;78.50;;;;;;5058068;28;19909;-60
2023/06/16 10:23:10;;;;;;;;;;;23.50;77.80;;;;;;5057531;28;20520;-60
2023/06/16 10:25:38;;;;;;;;;;;23.60;77.90;;;;;;5057975;28;19966;-60
2023/06/16 10:28:07;;;;;;;;;;;23.70;76.80;;;;;;5055061;28;19913;-60
2023/06/16 10:30:34;;;;;;;;;;;23.70;75.70;;;;;;5057045;28;19913;-60
2023/06/16 10:32:59;;;;;;;;;;;23.80;74.30;;;;;;5057787;28;19913;-60
2023/06/16 10:35:25;;;;;;;;;;;23.90;74.20;;;;;;5057589;28;19939;-60
2023/06/16 10:37:52;;;;;;;;;;;24.00;70.50;;;;;;5056088;28;20004;-60
2023/06/16 10:40:19;;;;;;;;;;;23.90;69.70;;;;;;5057878;28;19940;-60
2023/06/16 10:42:45;;;;;;;;;;;23.80;71.10;;;;;;5057954;28;19909;-60
2023/06/16 10:45:31;;;;;;;;;;;23.80;71.50;;;;;;5057605;28;19920;-60
2023/06/16 10:48:05;;;;;;;;;;;23.80;71.60;;;;;;5055694;28;19935;-60
2023/06/16 10:50:31;;;;;;;;;;;24.10;70.30;;;;;;5057608;28;19994;-60
2023/06/16 10:53:07;;;;;;;;;;;24.10;73.10;;;;;;5057333;28;19921;-60
2023/06/16 10:55:36;;;;;;;;;;;24.10;67.00;;;;;;5057850;28;19976;-60
2023/06/16 10:58:27;;;;;;;;;;;23.90;69.90;;;;;;5057499;28;20373;-60
2023/06/16 11:00:56;;;;;;;;;;;23.80;68.50;;;;;;5055399;28;20375;-60
2023/06/16 11:03:21;;;;;;;;;;;23.40;69.00;;;;;;5056356;28;19917;-60
2023/06/16 11:05:48;;;;;;;;;;;23.40;71.90;;;;;;5057413;28;19919;-60
2023/06/16 11:08:14;;;;;;;;;;;23.50;75.30;;;;;;5057664;28;19909;-60
2023/06/16 11:10:54;;;;;;;;;;;23.70;75.30;;;;;;5057382;28;19909;-60
2023/06/16 11:13:27;;;;;;;;;;;23.50;75.20;;;;;;5055940;28;20744;-60
2023/06/16 11:15:56;;;;;;;;;;;23.20;85.50;;;;;;5057494;28;19959;-60
2023/06/16 11:18:28;;;;;;;;;;;23.20;84.30;;;;;;5057636;28;19930;-60
2023/06/16 11:20:54;;;;;;;;;;;22.90;81.30;;;;;;5057357;28;19909;-60
2023/06/16 11:23:20;;;;;;;;;;;22.80;89.90;;;;;;5057794;28;20030;-60
2023/06/16 11:25:46;;;;;;;;;;;23.00;85.70;;;;;;5061342;28;19920;-60
2023/06/16 11:28:12;;;;;;;;;;;23.30;81.50;;;;;;5061162;28;19909;-60
2023/06/16 11:30:37;;;;;;;;;;;23.30;77.70;;;;;;5061076;28;19980;-60
2023/06/16 11:33:03;;;;;;;;;;;23.50;82.00;;;;;;5059288;28;19999;-60
2023/06/16 11:35:32;;;;;;;;;;;23.20;71.70;;;;;;5061375;28;19955;-60
2023/06/16 11:37:59;;;;;;;;;;;23.20;75.20;;;;;;5060953;28;19935;-60
2023/06/16 11:40:26;;;;;;;;;;;23.60;77.10;;;;;;5061071;28;19909;-60
2023/06/16 11:43:01;;;;;;;;;;;23.70;71.00;;;;;;5060177;28;20322;-60
2023/06/16 11:45:29;;;;;;;;;;;24.20;69.40;;;;;;5060771;28;19948;-60
2023/06/16 11:47:55;;;;;;;;;;;24.40;69.70;;;;;;5060686;28;19909;-60
2023/06/16 11:50:21;;;;;;;;;;;24.70;67.50;;;;;;5060608;28;20269;-60
2023/06/16 11:52:47;;;;;;;;;;;25.30;67.60;;;;;;5059930;28;19924;-60
2023/06/16 11:55:13;;;;;;;;;;;25.90;62.40;;;;;;5060010;28;20339;-60
2023/06/16 11:57:39;;;;;;;;;;;26.00;65.10;;;;;;5060821;28;19952;-61
2023/06/16 12:00:06;;;;;;;;;;;26.90;68.60;;;;;;5041007;28;19995;-61
2023/06/16 12:02:32;;;;;;;;;;;27.20;62.20;;;;;;5060957;28;19917;-60
2023/06/16 12:04:58;;;;;;;;;;;27.40;58.40;;;;;;5060326;28;20390;-60
2023/06/16 12:07:24;;;;;;;;;;;26.90;56.90;;;;;;5060894;28;19916;-60
2023/06/16 12:09:56;;;;;;;;;;;25.90;54.60;;;;;;5059322;28;19909;-60
2023/06/16 12:12:25;;;;;;;;;;;26.00;53.80;;;;;;5060338;28;19942;-60
2023/06/16 12:14:51;;;;;;;;;;;26.30;51.30;;;;;;5060078;28;19924;-60
2023/06/16 12:17:16;;;;;;;;;;;26.50;55.10;;;;;;5060212;28;19931;-61
2023/06/16 12:19:42;;;;;;;;;;;27.00;57.70;;;;;;5060076;28;19915;-61
2023/06/16 12:22:08;;;;;;;;;;;27.60;55.10;;;;;;5059436;28;19915;-60
2023/06/16 12:24:33;;;;;;;;;;;27.80;53.20;;;;;;5060026;28;20323;-61
2023/06/16 12:27:00;;;;;;;;;;;28.00;51.10;;;;;;5060175;28;19908;-61
2023/06/16 12:29:26;;;;;;;;;;;27.50;50.90;;;;;;5060179;28;19916;-61
2023/06/16 12:31:53;;;;;;;;;;;28.50;51.70;;;;;;5058464;28;19913;-61
2023/06/16 12:34:21;;;;;;;;;;;28.50;48.40;;;;;;5059958;28;19930;-61
2023/06/16 12:36:47;;;;;;;;;;;28.90;46.50;;;;;;5057794;28;19948;-61
2023/06/16 12:39:19;;;;;;;;;;;29.30;47.40;;;;;;5053663;28;20375;-61
2023/06/16 12:41:54;;;;;;;;;;;29.90;50.20;;;;;;5052395;28;19921;-61
2023/06/16 12:44:20;;;;;;;;;;;29.00;47.20;;;;;;5055237;28;20364;-61
2023/06/16 12:46:45;;;;;;;;;;;29.10;49.00;;;;;;5057774;28;19935;-61
2023/06/16 12:49:11;;;;;;;;;;;28.90;47.70;;;;;;5054513;28;20019;-61
2023/06/16 12:51:37;;;;;;;;;;;29.00;48.10;;;;;;5039403;28;19972;-61
2023/06/16 12:54:03;;;;;;;;;;;29.00;45.30;;;;;;5043641;28;20359;-61
2023/06/16 12:56:28;;;;;;;;;;;29.10;48.70;;;;;;5058275;28;19984;-61
2023/06/16 12:58:54;;;;;;;;;;;29.70;48.50;;;;;;5051812;28;19913;-61
2023/06/16 13:01:20;;;;;;;;;;;30.10;48.90;;;;;;5057535;28;19920;-61
2023/06/16 13:03:46;;;;;;;;;;;30.30;48.50;;;;;;5057987;28;20015;-61
2023/06/16 13:06:14;;;;;;;;;;;30.70;48.40;;;;;;5051794;28;20002;-61
2023/06/16 13:08:41;;;;;;;;;;;30.90;48.10;;;;;;5058917;28;19908;-61
2023/06/16 13:11:07;;;;;;;;;;;30.70;47.70;;;;;;5058811;28;19908;-60
2023/06/16 13:13:32;;;;;;;;;;;30.00;46.00;;;;;;5053057;28;20475;-61
2023/06/16 13:15:58;;;;;;;;;;;28.70;51.50;;;;;;5056395;28;20356;-60
2023/06/16 13:18:24;;;;;;;;;;;28.20;54.30;;;;;;5057679;28;19920;-60
2023/06/16 13:20:50;;;;;;;;;;;28.60;53.40;;;;;;5069830;28;19913;-60
2023/06/16 13:23:16;;;;;;;;;;;28.80;52.30;;;;;;5069809;28;19940;-61
2023/06/16 13:25:42;;;;;;;;;;;29.00;50.90;;;;;;5068662;28;19912;-61
2023/06/16 13:28:08;;;;;;;;;;;28.60;52.20;;;;;;5078708;28;19908;-60
2023/06/16 13:30:33;;;;;;;;;;;28.10;53.30;;;;;;5071400;28;19931;-60
2023/06/16 13:32:59;;;;;;;;;;;28.70;51.10;;;;;;5058664;28;19962;-60
2023/06/16 13:35:25;;;;;;;;;;;29.00;53.00;;;;;;5047843;28;19920;-60
2023/06/16 13:37:51;;;;;;;;;;;29.30;52.20;;;;;;5038167;28;19955;-60
2023/06/16 13:40:17;;;;;;;;;;;28.80;51.70;;;;;;5048752;28;19912;-60
2023/06/16 13:42:42;;;;;;;;;;;28.60;53.10;;;;;;5058657;28;20447;-60
2023/06/16 13:45:08;;;;;;;;;;;28.70;54.90;;;;;;5055578;28;19964;-60
2023/06/16 13:47:35;;;;;;;;;;;28.80;53.90;;;;;;5058174;28;19909;-60
2023/06/16 13:50:00;;;;;;;;;;;28.70;55.40;;;;;;5058407;28;19916;-60
2023/06/16 13:52:28;;;;;;;;;;;28.00;56.40;;;;;;5054897;28;19913;-60
2023/06/16 13:54:53;;;;;;;;;;;28.10;60.00;;;;;;5057309;28;19919;-60
2023/06/16 13:57:19;;;;;;;;;;;28.10;60.00;;;;;;5057701;28;19913;-61
2023/06/16 13:59:45;;;;;;;;;;;27.80;60.30;;;;;;5057172;28;20410;-60
2023/06/16 14:02:11;;;;;;;;;;;28.50;57.70;;;;;;5057716;28;20007;-62
2023/06/16 14:04:36;;;;;;;;;;;28.90;54.30;;;;;;5053844;28;20095;-60
2023/06/16 14:07:02;;;;;;;;;;;28.60;55.00;;;;;;5058236;28;20425;-60
2023/06/16 14:09:28;;;;;;;;;;;28.20;54.40;;;;;;5057345;28;19931;-60
2023/06/16 14:11:53;;;;;;;;;;;28.20;55.60;;;;;;5058217;28;19941;-61
2023/06/16 14:14:19;;;;;;;;;;;28.40;56.00;;;;;;5051790;28;20411;-60